Time;durP1;ratioP1;P1;durP2;ratioP2;P2;SDS_P1;SDS_P2;PMS_P1;PMS_P2;Temp;Humidity;BMP_temperature;BMP_pressure;BME280_temperature;BME280_humidity;BME280_pressure;Samples;Min_cycle;Max_cycle;Signal;HPM_P1;HPM_P2
2023/03/31 00:01:03;;;;;;;13.27;5.05;;;;;;;9.11;46.56;93895.69;5064644;28;20024;-71
2023/03/31 00:03:29;;;;;;;13.75;4.78;;;;;;;9.11;45.95;93901.00;5064672;28;20027;-71
2023/03/31 00:05:59;;;;;;;12.35;5.45;;;;;;;9.14;45.94;93903.03;5064533;28;20043;-70
2023/03/31 00:08:28;;;;;;;13.15;5.47;;;;;;;9.13;46.40;93906.81;5064533;28;20395;-71
2023/03/31 00:10:58;;;;;;;9.50;3.63;;;;;;;9.12;45.64;93895.41;5063456;28;20036;-70
2023/03/31 00:13:24;;;;;;;13.30;3.53;;;;;;;9.11;45.31;93890.38;5064568;28;20048;-71
2023/03/31 00:15:55;;;;;;;14.32;3.55;;;;;;;9.09;44.95;93892.53;5064552;28;20258;-71
2023/03/31 00:18:21;;;;;;;8.30;3.83;;;;;;;9.09;45.27;93892.53;5064418;28;20032;-70
2023/03/31 00:20:47;;;;;;;7.68;3.92;;;;;;;9.11;45.93;93879.72;5064200;28;20021;-71
2023/03/31 00:23:13;;;;;;;15.80;3.92;;;;;;;9.15;46.02;93878.03;5063986;28;20193;-71
2023/03/31 00:25:40;;;;;;;10.65;4.38;;;;;;;9.19;46.49;93886.97;5064082;28;20108;-71
2023/03/31 00:28:05;;;;;;;10.77;3.28;;;;;;;9.19;46.47;93879.78;5064147;28;20041;-70
2023/03/31 00:30:31;;;;;;;10.82;4.15;;;;;;;9.21;46.79;93890.13;5064240;28;20029;-70
2023/03/31 00:32:56;;;;;;;9.82;3.30;;;;;;;9.24;47.03;93881.56;5063929;28;20040;-70
2023/03/31 00:35:22;;;;;;;9.20;3.42;;;;;;;9.23;46.55;93879.97;5064043;28;20083;-70
2023/03/31 00:37:47;;;;;;;11.05;2.95;;;;;;;9.19;47.33;93892.31;5064010;28;20041;-70
2023/03/31 00:40:12;;;;;;;9.10;2.50;;;;;;;9.17;45.97;93873.19;5063832;28;20052;-70
2023/03/31 00:42:42;;;;;;;12.13;4.00;;;;;;;9.21;46.84;93877.59;5062679;28;20189;-70
2023/03/31 00:45:14;;;;;;;9.80;3.55;;;;;;;9.19;47.00;93869.16;5063847;28;20021;-70
2023/03/31 00:47:47;;;;;;;11.93;3.90;;;;;;;9.24;47.00;93866.38;5063905;28;20032;-70
2023/03/31 00:50:25;;;;;;;8.15;3.92;;;;;;;9.29;47.52;93868.13;5063660;28;20031;-70
2023/03/31 00:52:56;;;;;;;12.32;4.47;;;;;;;9.30;47.88;93877.69;5063663;28;20059;-70
2023/03/31 00:55:29;;;;;;;12.18;4.57;;;;;;;9.29;47.54;93856.69;5063669;28;20033;-70
2023/03/31 00:57:55;;;;;;;9.07;4.00;;;;;;;9.32;46.97;93856.06;5063527;28;20093;-70
2023/03/31 01:00:22;;;;;;;14.57;4.30;;;;;;;9.37;47.07;93859.41;5063794;28;20029;-70
2023/03/31 01:02:54;;;;;;;11.05;4.60;;;;;;;9.41;47.20;93847.06;5063371;28;20067;-70
2023/03/31 01:05:26;;;;;;;12.80;4.05;;;;;;;9.42;47.81;93850.50;5063656;28;20027;-70
2023/03/31 01:07:54;;;;;;;11.43;4.40;;;;;;;9.44;47.60;93845.66;5061806;28;20100;-70
2023/03/31 01:10:20;;;;;;;12.63;4.38;;;;;;;9.48;47.42;93840.50;5063674;28;20020;-70
2023/03/31 01:12:49;;;;;;;10.88;4.32;;;;;;;9.52;47.77;93846.78;5063383;28;20331;-70
2023/03/31 01:15:15;;;;;;;10.55;4.07;;;;;;;9.52;47.63;93838.81;5063283;28;20032;-70
2023/03/31 01:17:43;;;;;;;9.80;4.07;;;;;;;9.55;47.18;93840.88;5063119;28;20223;-70
2023/03/31 01:20:46;;;;;;;11.90;3.85;;;;;;;9.58;46.99;93833.03;5063226;28;20075;-70
2023/03/31 01:23:11;;;;;;;;;;;;;;;9.63;47.04;93840.13;5063643;28;20021;-70
2023/03/31 01:26:14;;;;;;;15.25;3.85;;;;;;;9.63;47.77;93842.78;5063261;28;19911;-70
2023/03/31 01:28:58;;;;;;;10.80;3.55;;;;;;;9.65;47.36;93856.56;5063087;28;20025;-70
2023/03/31 01:32:08;;;;;;;13.23;3.88;;;;;;;9.66;47.67;93860.78;5063261;28;20025;-70
2023/03/31 01:34:57;;;;;;;14.95;4.55;;;;;;;9.63;47.39;93848.09;5062921;28;20096;-70
2023/03/31 01:38:09;;;;;;;12.02;3.97;;;;;;;9.61;47.54;93856.38;5063198;28;20024;-70
2023/03/31 01:41:01;;;;;;;11.05;4.28;;;;;;;9.65;48.07;93872.53;5063044;28;20033;-70
2023/03/31 01:43:45;;;;;;;;;;;;;;;9.66;47.43;93868.00;5063160;28;20028;-70
2023/03/31 01:46:22;;;;;;;9.60;4.05;;;;;;;9.62;49.86;93881.91;5062826;28;19905;-69
2023/03/31 01:48:57;;;;;;;10.57;3.70;;;;;;;9.59;49.48;93877.19;5062676;28;20032;-70
2023/03/31 01:51:34;;;;;;;12.43;4.07;;;;;;;9.60;49.60;93880.63;5063065;28;20226;-69
2023/03/31 01:54:06;;;;;;;9.48;4.20;;;;;;;9.61;50.60;93882.22;5062893;28;20024;-70
2023/03/31 01:56:33;;;;;;;11.55;5.28;;;;;;;9.64;50.29;93882.38;5062616;28;20247;-69
2023/03/31 01:59:07;;;;;;;18.58;6.93;;;;;;;9.64;49.50;93879.72;5062672;28;20227;-69
2023/03/31 02:01:51;;;;;;;12.50;4.20;;;;;;;9.52;50.30;93873.41;5062598;28;20032;-70
2023/03/31 02:04:22;;;;;;;11.13;4.18;;;;;;;9.45;51.03;93879.16;5062605;28;20028;-69
2023/03/31 02:06:55;;;;;;;12.45;4.47;;;;;;;9.42;50.76;93882.41;5062552;28;20025;-69
2023/03/31 02:09:25;;;;;;;15.73;4.75;;;;;;;9.42;50.88;93869.94;5062722;28;20032;-69
2023/03/31 02:11:53;;;;;;;12.20;6.05;;;;;;;9.39;50.57;93883.81;5062773;28;20281;-69
2023/03/31 02:14:23;;;;;;;8.07;3.92;;;;;;;9.46;51.16;93890.59;5062464;28;20028;-69
2023/03/31 02:16:57;;;;;;;14.30;4.50;;;;;;;9.45;50.82;93897.78;5062607;28;20016;-69
2023/03/31 02:19:26;;;;;;;15.00;5.10;;;;;;;9.49;49.11;93912.06;5065060;28;20227;-69
2023/03/31 02:21:53;;;;;;;14.60;5.15;;;;;;;9.31;49.51;93903.19;5066866;28;20350;-69
2023/03/31 02:24:23;;;;;;;16.85;5.35;;;;;;;9.30;50.24;93909.59;5066378;28;20033;-69
2023/03/31 02:27:05;;;;;;;14.88;5.55;;;;;;;9.26;49.82;93915.81;5066358;28;20021;-70
2023/03/31 02:29:30;;;;;;;30.80;5.53;;;;;;;9.21;52.50;93914.06;5066487;28;20063;-70
2023/03/31 02:32:34;;;;;;;16.98;5.43;;;;;;;9.24;52.33;93929.44;5066494;28;20032;-71
2023/03/31 02:35:00;;;;;;;7.22;2.38;;;;;;;8.97;55.68;93923.09;5064974;28;20107;-70
2023/03/31 02:37:29;;;;;;;3.65;1.20;;;;;;;8.98;57.40;93914.06;5066150;28;20017;-70
2023/03/31 02:39:57;;;;;;;3.40;1.25;;;;;;;9.03;57.62;93910.47;5066146;28;20319;-70
2023/03/31 02:42:24;;;;;;;5.22;1.30;;;;;;;8.99;59.84;93926.25;5066154;28;20037;-70
2023/03/31 02:44:50;;;;;;;7.72;1.30;;;;;;;8.89;62.06;93923.81;5066433;28;20320;-71
2023/03/31 02:47:18;;;;;;;4.70;1.40;;;;;;;8.79;63.75;93932.81;5066178;28;20024;-71
2023/03/31 02:49:55;;;;;;;2.67;1.23;;;;;;;8.69;63.62;93921.63;5065971;28;20024;-71
2023/03/31 02:52:56;;;;;;;3.65;1.33;;;;;;;8.66;62.44;93914.25;5066158;28;20390;-71
2023/03/31 02:55:36;;;;;;;5.47;1.60;;;;;;;8.56;63.18;93892.13;5066349;28;20251;-71
2023/03/31 02:58:35;;;;;;;8.05;1.73;;;;;;;8.52;62.88;93895.69;5065639;28;20053;-71
2023/03/31 03:01:34;;;;;;;4.55;1.25;;;;;;;8.55;62.46;93889.78;5065983;28;20266;-71
2023/03/31 03:04:15;;;;;;;3.10;1.30;;;;;;;8.55;62.00;93879.16;5065791;28;20037;-71
2023/03/31 03:06:52;;;;;;;7.25;1.63;;;;;;;8.58;61.21;93874.00;5065763;28;20041;-71
2023/03/31 03:09:34;;;;;;;3.55;1.92;;;;;;;8.66;60.85;93874.41;5065736;28;20026;-71
2023/03/31 03:12:16;;;;;;;9.10;1.60;;;;;;;8.72;60.54;93868.66;5065833;28;20032;-71
2023/03/31 03:15:06;;;;;;;5.13;1.70;;;;;;;8.75;62.50;93867.25;5065820;28;20146;-71
2023/03/31 03:17:40;;;;;;;5.95;1.60;;;;;;;8.79;61.67;93852.28;5065597;28;20043;-71
2023/03/31 03:20:08;;;;;;;8.40;1.98;;;;;;;8.88;62.66;93857.69;5065533;28;20056;-71
2023/03/31 03:22:37;;;;;;;3.30;1.52;;;;;;;8.88;64.15;93850.50;5065516;28;20021;-71
2023/03/31 03:25:08;;;;;;;9.48;2.50;;;;;;;8.94;65.77;93867.91;5065378;28;20016;-71
2023/03/31 03:27:34;;;;;;;9.77;2.58;;;;;;;9.00;66.41;93861.38;5065425;28;20017;-71
2023/03/31 03:30:02;;;;;;;4.35;2.35;;;;;;;8.92;66.93;93856.78;5064744;28;20028;-70
2023/03/31 03:32:27;;;;;;;6.38;2.33;;;;;;;8.95;67.44;93856.16;5065358;28;20024;-70
2023/03/31 03:34:53;;;;;;;4.72;2.28;;;;;;;8.91;67.60;93844.56;5065389;28;20087;-70
2023/03/31 03:37:19;;;;;;;6.97;2.40;;;;;;;8.89;68.62;93851.28;5064907;28;20017;-70
2023/03/31 03:39:44;;;;;;;5.90;2.40;;;;;;;8.91;68.54;93857.84;5065113;28;20031;-70
2023/03/31 03:42:10;;;;;;;5.13;2.10;;;;;;;8.91;67.96;93847.22;5065055;28;20025;-70
2023/03/31 03:44:35;;;;;;;7.78;2.30;;;;;;;8.96;66.50;93847.09;5065224;28;20189;-70
2023/03/31 03:47:01;;;;;;;3.75;1.85;;;;;;;8.96;66.88;93831.16;5064997;28;20012;-70
2023/03/31 03:49:26;;;;;;;5.40;2.05;;;;;;;8.99;66.76;93821.78;5064927;28;20263;-70
2023/03/31 03:51:52;;;;;;;8.32;2.22;;;;;;;9.12;66.99;93818.28;5065137;28;20041;-70
2023/03/31 03:54:17;;;;;;;8.90;2.15;;;;;;;9.15;67.68;93824.84;5064743;28;20024;-71
2023/03/31 03:56:43;;;;;;;6.55;2.17;;;;;;;9.18;67.53;93826.91;5064648;28;20039;-71
2023/03/31 03:59:10;;;;;;;4.70;2.15;;;;;;;9.27;67.17;93830.41;5064967;28;20041;-71
2023/03/31 04:01:36;;;;;;;7.28;2.20;;;;;;;9.32;66.11;93842.78;5064824;28;20079;-71
2023/03/31 04:04:02;;;;;;;8.00;2.72;;;;;;;9.29;66.12;93846.84;5064859;28;20311;-71
2023/03/31 04:06:28;;;;;;;8.55;3.63;;;;;;;9.13;66.98;93849.09;5064501;28;20021;-72
2023/03/31 04:08:53;;;;;;;13.70;2.88;;;;;;;9.14;67.07;93849.88;5064574;28;20099;-71
2023/03/31 04:11:19;;;;;;;6.80;3.13;;;;;;;9.23;66.76;93851.50;5064552;28;20017;-72
2023/03/31 04:13:45;;;;;;;11.95;3.45;;;;;;;9.28;66.33;93849.78;5064451;28;20095;-71
2023/03/31 04:16:11;;;;;;;6.28;3.25;;;;;;;9.33;66.33;93855.78;5064495;28;20016;-71
2023/03/31 04:18:41;;;;;;;12.80;4.38;;;;;;;9.39;66.38;93859.88;5064181;28;20028;-71
2023/03/31 04:21:11;;;;;;;8.18;4.40;;;;;;;9.43;66.22;93863.50;5064214;28;20027;-71
2023/03/31 04:23:45;;;;;;;14.98;4.35;;;;;;;9.40;65.91;93861.47;5064476;28;20025;-71
2023/03/31 04:26:15;;;;;;;8.30;3.63;;;;;;;9.39;66.05;93856.44;5064447;28;20248;-71
2023/03/31 04:28:45;;;;;;;7.70;3.95;;;;;;;9.44;66.86;93862.41;5064209;28;20233;-71
2023/03/31 04:31:24;;;;;;;7.40;3.60;;;;;;;9.47;66.87;93855.69;5064365;28;20025;-71
2023/03/31 04:33:53;;;;;;;6.30;3.28;;;;;;;9.40;67.33;93850.81;5064120;28;20370;-71
2023/03/31 04:36:18;;;;;;;9.88;3.88;;;;;;;9.42;66.28;93859.28;5064042;28;20031;-71
2023/03/31 04:38:45;;;;;;;9.00;3.83;;;;;;;9.46;66.10;93853.34;5064059;28;20268;-71
2023/03/31 04:41:14;;;;;;;12.10;3.85;;;;;;;9.44;66.30;93848.31;5063186;28;20078;-71
2023/03/31 04:43:40;;;;;;;9.02;3.78;;;;;;;9.47;66.65;93836.31;5064008;28;20047;-71
2023/03/31 04:46:05;;;;;;;6.57;3.42;;;;;;;9.50;67.22;93841.00;5063776;28;20020;-71
2023/03/31 04:48:30;;;;;;;12.77;4.53;;;;;;;9.49;67.41;93848.19;5063890;28;20025;-71
2023/03/31 04:50:56;;;;;;;10.38;5.43;;;;;;;9.46;67.52;93842.69;5063968;28;20067;-71
2023/03/31 04:53:22;;;;;;;12.63;5.13;;;;;;;9.46;67.12;93843.47;5063922;28;20041;-71
2023/03/31 04:55:50;;;;;;;14.15;6.18;;;;;;;9.48;66.84;93841.28;5063681;28;20037;-71
2023/03/31 04:58:15;;;;;;;17.08;5.70;;;;;;;9.52;66.75;93831.59;5063642;28;20040;-70
2023/03/31 05:00:41;;;;;;;16.05;5.65;;;;;;;9.57;66.36;93823.50;5063660;28;20017;-71
2023/03/31 05:03:07;;;;;;;9.73;4.80;;;;;;;9.60;64.86;93827.41;5063762;28;20020;-71
2023/03/31 05:05:32;;;;;;;18.45;7.85;;;;;;;9.62;64.87;93814.59;5062513;28;20207;-70
2023/03/31 05:07:58;;;;;;;10.88;5.00;;;;;;;9.63;64.09;93821.50;5063444;28;20036;-71
2023/03/31 05:10:24;;;;;;;12.70;4.43;;;;;;;9.59;63.97;93815.22;5062223;28;20017;-71
2023/03/31 05:12:50;;;;;;;10.90;3.80;;;;;;;9.46;62.32;93814.22;5063396;28;20028;-71
2023/03/31 05:15:15;;;;;;;11.55;3.45;;;;;;;9.49;62.62;93802.97;5063085;28;20092;-71
2023/03/31 05:17:41;;;;;;;12.68;3.72;;;;;;;9.42;62.42;93816.72;5063249;28;20070;-71
2023/03/31 05:20:07;;;;;;;10.40;4.00;;;;;;;9.46;62.59;93802.78;5063294;28;20028;-71
2023/03/31 05:22:38;;;;;;;12.05;4.32;;;;;;;9.56;63.19;93789.22;5063374;28;20059;-71
2023/03/31 05:25:06;;;;;;;8.40;3.87;;;;;;;9.60;62.48;93793.59;5063311;28;20078;-71
2023/03/31 05:27:32;;;;;;;10.85;3.83;;;;;;;9.40;61.64;93802.94;5062988;28;20044;-70
2023/03/31 05:29:58;;;;;;;13.23;4.00;;;;;;;9.47;61.74;93791.84;5063075;28;20020;-70
2023/03/31 05:32:25;;;;;;;8.70;3.67;;;;;;;9.61;62.54;93799.72;5063299;28;20092;-71
2023/03/31 05:34:51;;;;;;;19.40;4.53;;;;;;;9.71;63.02;93796.78;5063004;28;20096;-71
2023/03/31 05:37:19;;;;;;;12.02;4.50;;;;;;;9.82;63.09;93808.72;5062888;28;20029;-71
2023/03/31 05:39:44;;;;;;;18.95;5.00;;;;;;;9.91;62.45;93791.97;5063075;28;20033;-71
2023/03/31 05:42:10;;;;;;;9.70;4.60;;;;;;;10.02;62.22;93801.25;5062811;28;20028;-71
2023/03/31 05:44:36;;;;;;;9.70;4.20;;;;;;;10.08;61.58;93793.91;5062730;28;20024;-70
2023/03/31 05:47:02;;;;;;;11.35;4.35;;;;;;;10.09;62.01;93806.88;5062469;28;20032;-70
2023/03/31 05:49:27;;;;;;;13.18;5.25;;;;;;;10.15;61.00;93808.31;5062936;28;20116;-71
2023/03/31 05:51:53;;;;;;;12.43;5.80;;;;;;;10.22;60.87;93779.34;5062870;28;20307;-70
2023/03/31 05:54:18;;;;;;;20.55;5.70;;;;;;;10.09;59.85;93817.53;5062656;28;20025;-70
2023/03/31 05:56:44;;;;;;;13.48;5.43;;;;;;;10.10;59.46;93797.03;5061305;28;20044;-70
2023/03/31 05:59:09;;;;;;;11.57;3.85;;;;;;;10.08;60.23;93816.00;5062589;28;20196;-70
2023/03/31 06:01:35;;;;;;;9.55;4.55;;;;;;;10.11;59.76;93815.34;5062567;28;20017;-70
2023/03/31 06:04:00;;;;;;;15.07;5.35;;;;;;;10.13;59.90;93802.50;5062810;28;20020;-70
2023/03/31 06:06:26;;;;;;;18.98;5.78;;;;;;;10.01;60.27;93808.47;5062652;28;20044;-70
2023/03/31 06:08:52;;;;;;;16.80;5.47;;;;;;;10.04;60.46;93815.03;5062901;28;20036;-70
2023/03/31 06:11:19;;;;;;;16.77;6.20;;;;;;;10.14;60.61;93814.75;5062222;28;20040;-70
2023/03/31 06:13:46;;;;;;;13.70;5.50;;;;;;;10.22;60.62;93813.19;5062258;28;20037;-70
2023/03/31 06:16:13;;;;;;;11.77;5.25;;;;;;;10.22;58.99;93810.53;5062546;28;20033;-70
2023/03/31 06:18:38;;;;;;;9.45;3.70;;;;;;;10.25;55.91;93804.56;5062136;28;20029;-70
2023/03/31 06:21:05;;;;;;;10.45;4.40;;;;;;;10.41;56.51;93804.94;5062527;28;20028;-69
2023/03/31 06:23:30;;;;;;;13.95;5.10;;;;;;;9.84;61.62;93779.91;5062404;28;20037;-70
2023/03/31 06:26:07;;;;;;;14.23;5.15;;;;;;;9.79;61.63;93804.00;5062493;28;20063;-70
2023/03/31 06:28:36;;;;;;;11.07;4.15;;;;;;;9.84;58.24;93790.56;5062215;28;20032;-69
2023/03/31 06:31:06;;;;;;;13.90;4.03;;;;;;;9.92;58.42;93797.00;5062077;28;20338;-70
2023/03/31 06:33:33;;;;;;;19.55;5.43;;;;;;;10.08;57.50;93802.66;5062091;28;20025;-71
2023/03/31 06:36:00;;;;;;;12.63;4.13;;;;;;;10.23;58.55;93804.88;5062328;28;20043;-71
2023/03/31 06:38:26;;;;;;;17.20;3.88;;;;;;;10.21;57.26;93803.63;5062286;28;20075;-71
2023/03/31 06:40:53;;;;;;;8.93;3.85;;;;;;;10.19;56.82;93809.25;5062260;28;20036;-72
2023/03/31 06:43:19;;;;;;;12.50;3.80;;;;;;;10.32;56.35;93812.13;5061951;28;20037;-71
2023/03/31 06:45:44;;;;;;;11.23;2.83;;;;;;;10.48;54.62;93810.56;5061920;28;20071;-71
2023/03/31 06:48:10;;;;;;;8.65;2.38;;;;;;;10.62;51.75;93821.88;5062268;28;20021;-71
2023/03/31 06:50:40;;;;;;;3.90;1.60;;;;;;;10.76;50.72;93813.69;5062169;28;20009;-70
2023/03/31 06:53:06;;;;;;;14.40;3.60;;;;;;;10.82;55.58;93817.78;5061822;28;20024;-67
2023/03/31 06:55:32;;;;;;;25.35;4.70;;;;;;;11.01;57.22;93804.13;5061852;28;20020;-67
2023/03/31 06:57:58;;;;;;;23.52;5.10;;;;;;;11.18;55.43;93826.53;5061715;28;20303;-67
2023/03/31 07:00:24;;;;;;;9.95;3.72;;;;;;;11.34;54.08;93810.81;5062208;28;20194;-67
2023/03/31 07:02:50;;;;;;;6.97;2.42;;;;;;;11.34;50.02;93816.91;5061127;28;20064;-80
2023/03/31 07:05:17;;;;;;;5.65;2.63;;;;;;;11.47;50.50;93801.78;5062579;28;20013;-91
2023/03/31 07:07:42;;;;;;;5.93;1.85;;;;;;;11.53;49.27;93807.75;5062043;28;20036;-77
2023/03/31 07:10:08;;;;;;;11.45;2.38;;;;;;;11.56;50.37;93796.41;5061814;28;20185;-76
2023/03/31 07:12:33;;;;;;;7.75;2.10;;;;;;;11.55;48.53;93778.84;5062857;28;20059;-75
2023/03/31 07:14:59;;;;;;;8.45;2.15;;;;;;;11.56;48.95;93770.53;5063148;28;20036;-76
2023/03/31 07:17:24;;;;;;;5.88;2.67;;;;;;;11.64;49.52;93763.56;5063987;28;20017;-75
2023/03/31 07:19:50;;;;;;;9.20;2.75;;;;;;;11.78;49.49;93763.34;5063415;28;20025;-75
2023/03/31 07:22:15;;;;;;;10.43;2.90;;;;;;;11.82;49.29;93754.38;5062384;28;20408;-75
2023/03/31 07:24:41;;;;;;;6.15;2.67;;;;;;;11.94;49.88;93758.25;5061946;28;20034;-76
2023/03/31 07:27:06;;;;;;;13.18;3.25;;;;;;;12.11;50.28;93744.00;5062498;28;20080;-76
2023/03/31 07:29:32;;;;;;;15.65;4.85;;;;;;;12.18;48.96;93744.28;5063105;28;20021;-75
2023/03/31 07:31:57;;;;;;;8.02;3.97;;;;;;;12.28;49.42;93727.09;5062225;28;20032;-75
2023/03/31 07:34:22;;;;;;;9.55;3.15;;;;;;;12.43;48.79;93737.16;5063485;28;20021;-75
2023/03/31 07:36:48;;;;;;;9.00;3.22;;;;;;;12.47;49.55;93750.66;5065124;28;20028;-75
2023/03/31 07:39:13;;;;;;;9.38;3.50;;;;;;;12.61;48.61;93737.81;5065091;28;20418;-75
2023/03/31 07:41:39;;;;;;;8.75;3.50;;;;;;;12.66;48.02;93745.63;5064953;28;20311;-75
2023/03/31 07:44:05;;;;;;;5.97;3.85;;;;;;;12.71;47.98;93739.28;5065137;28;20067;-76
2023/03/31 07:46:30;;;;;;;9.18;4.45;;;;;;;12.84;47.99;93730.19;5064806;28;20127;-75
2023/03/31 07:48:57;;;;;;;11.07;4.65;;;;;;;12.93;47.90;93719.41;5064984;28;20028;-76
2023/03/31 07:51:25;;;;;;;8.70;3.65;;;;;;;13.02;46.63;93731.56;5065102;28;20043;-76
2023/03/31 07:53:51;;;;;;;6.93;3.40;;;;;;;13.11;47.10;93728.81;5064940;28;20031;-77
2023/03/31 07:56:21;;;;;;;9.25;3.83;;;;;;;13.17;45.61;93730.19;5064790;28;20227;-76
2023/03/31 07:58:47;;;;;;;15.63;4.05;;;;;;;13.18;46.00;93739.75;5064843;28;20039;-76
2023/03/31 08:01:18;;;;;;;9.95;3.13;;;;;;;13.15;45.07;93737.75;5064800;28;20020;-76
2023/03/31 08:03:46;;;;;;;9.57;3.08;;;;;;;13.13;45.63;93744.56;5064428;28;20287;-79
2023/03/31 08:06:16;;;;;;;12.27;2.72;;;;;;;13.27;44.91;93725.50;5064731;28;20211;-77
2023/03/31 08:08:42;;;;;;;5.93;3.13;;;;;;;13.40;43.89;93716.41;5064795;28;20021;-77
2023/03/31 08:11:08;;;;;;;12.18;3.03;;;;;;;13.54;43.99;93724.88;5064522;28;20029;-77
2023/03/31 08:13:34;;;;;;;7.22;2.55;;;;;;;13.68;43.16;93721.88;5064362;28;20025;-77
2023/03/31 08:16:00;;;;;;;6.47;2.20;;;;;;;13.81;42.28;93728.78;5064429;28;20025;-77
2023/03/31 08:18:25;;;;;;;8.13;2.42;;;;;;;13.82;42.22;93706.25;5064299;28;20029;-77
2023/03/31 08:20:50;;;;;;;16.63;3.67;;;;;;;13.74;42.27;93707.13;5064549;28;20050;-77
2023/03/31 08:23:16;;;;;;;10.23;2.20;;;;;;;13.54;42.39;93719.53;5064355;28;20041;-76
2023/03/31 08:25:41;;;;;;;11.52;2.67;;;;;;;13.56;43.39;93711.16;5064235;28;20025;-75
2023/03/31 08:28:09;;;;;;;12.48;2.60;;;;;;;13.66;42.29;93689.28;5064164;28;20087;-75
2023/03/31 08:30:37;;;;;;;9.80;2.20;;;;;;;13.79;41.55;93698.88;5063794;28;20065;-76
2023/03/31 08:33:03;;;;;;;7.70;2.05;;;;;;;13.87;40.53;93696.41;5063988;28;20382;-79
2023/03/31 08:35:28;;;;;;;5.78;1.92;;;;;;;13.88;40.08;93701.44;5064146;28;20067;-80
2023/03/31 08:37:54;;;;;;;8.77;2.40;;;;;;;13.77;39.44;93695.75;5064079;28;20025;-79
2023/03/31 08:40:23;;;;;;;6.28;2.28;;;;;;;13.78;39.13;93685.81;5064037;28;20036;-79
2023/03/31 08:42:51;;;;;;;13.10;1.75;;;;;;;13.85;39.42;93702.88;5063766;28;20304;-81
2023/03/31 08:45:26;;;;;;;6.78;2.35;;;;;;;13.82;40.65;93711.59;5063824;28;20078;-77
2023/03/31 08:48:00;;;;;;;8.90;2.92;;;;;;;13.72;40.93;93703.22;5063861;28;20079;-80
2023/03/31 08:50:35;;;;;;;10.75;2.97;;;;;;;13.61;40.75;93698.31;5063595;28;20020;-81
2023/03/31 08:53:25;;;;;;;10.85;2.42;;;;;;;13.40;40.36;93703.00;5063811;28;20025;-78
2023/03/31 08:55:55;;;;;;;4.70;1.48;;;;;;;13.33;40.49;93724.19;5063811;28;20266;-76
2023/03/31 08:58:44;;;;;;;8.20;1.85;;;;;;;13.31;40.84;93705.00;5063543;28;20056;-77
2023/03/31 09:01:12;;;;;;;2.78;1.77;;;;;;;13.29;40.37;93696.50;5063596;28;20031;-76
2023/03/31 09:03:50;;;;;;;8.63;1.80;;;;;;;13.44;41.06;93687.84;5063649;28;20231;-77
2023/03/31 09:06:22;;;;;;;6.97;1.55;;;;;;;13.55;40.10;93678.22;5063515;28;20184;-83
2023/03/31 09:08:47;;;;;;;7.20;1.80;;;;;;;13.78;40.14;93691.97;5062362;28;20028;-80
2023/03/31 09:11:19;;;;;;;8.13;1.75;;;;;;;13.92;40.18;93685.44;5063445;28;20196;-79
2023/03/31 09:14:03;;;;;;;6.93;2.10;;;;;;;14.07;39.41;93692.81;5063295;28;20035;-80
2023/03/31 09:16:46;;;;;;;5.10;1.38;;;;;;;14.15;38.81;93701.84;5063261;28;20098;-81
2023/03/31 09:19:49;;;;;;;5.10;2.03;;;;;;;13.93;39.38;93693.16;5063012;28;20021;-82
2023/03/31 09:22:21;;;;;;;8.73;2.25;;;;;;;13.97;39.64;93695.94;5052091;28;20255;-81
2023/03/31 09:24:54;;;;;;;12.70;1.83;;;;;;;14.12;38.83;93695.22;5063018;28;20020;-77
2023/03/31 09:27:23;;;;;;;5.32;1.38;;;;;;;14.16;38.71;93685.38;5062895;28;20017;-85
2023/03/31 09:29:54;;;;;;;3.30;1.23;;;;;;;14.20;38.49;93674.78;5062116;28;20111;-82
2023/03/31 09:32:23;;;;;;;5.95;1.60;;;;;;;14.23;39.01;93688.28;5063797;28;20029;-90
2023/03/31 09:34:59;;;;;;;8.82;1.50;;;;;;;14.35;38.72;93681.31;5063372;28;20020;-84
2023/03/31 09:37:29;;;;;;;13.45;1.40;;;;;;;14.36;38.59;93682.88;5063128;28;20024;-82
2023/03/31 09:40:06;;;;;;;5.53;2.10;;;;;;;14.34;38.30;93702.00;5063104;28;20020;-79
2023/03/31 09:42:34;;;;;;;8.30;1.70;;;;;;;14.19;38.84;93692.75;5062578;28;20378;-83
2023/03/31 09:45:00;;;;;;;5.82;1.38;;;;;;;14.31;38.69;93681.22;5063659;28;20024;-88
2023/03/31 09:47:25;;;;;;;6.00;1.65;;;;;;;14.33;38.54;93686.22;5061823;28;20016;-80
2023/03/31 09:49:51;;;;;;;5.90;1.55;;;;;;;14.45;38.76;93672.81;5063203;28;20025;-83
2023/03/31 09:52:31;;;;;;;8.88;2.13;;;;;;;14.47;38.69;93673.25;5062819;28;20021;-81
2023/03/31 09:55:04;;;;;;;5.13;1.33;;;;;;;14.54;38.14;93665.38;5063001;28;20025;-87
2023/03/31 09:57:31;;;;;;;8.65;2.60;;;;;;;14.68;38.58;93688.38;5061753;28;20045;-82
2023/03/31 10:00:06;;;;;;;4.47;1.48;;;;;;;14.69;38.00;93682.66;5062917;28;20100;-83
2023/03/31 10:02:32;;;;;;;6.13;2.13;;;;;;;14.65;38.91;93679.09;5062874;28;20066;-78
2023/03/31 10:04:58;;;;;;;8.32;2.20;;;;;;;14.80;38.14;93664.19;5062728;28;20025;-82
2023/03/31 10:07:24;;;;;;;17.20;1.85;;;;;;;14.66;37.94;93653.06;5062998;28;20017;-83
2023/03/31 10:09:51;;;;;;;8.68;1.75;;;;;;;14.66;38.56;93648.50;5062845;28;20330;-77
2023/03/31 10:12:23;;;;;;;9.57;2.20;;;;;;;14.90;38.34;93644.88;5062559;28;20025;-83
2023/03/31 10:14:51;;;;;;;7.67;3.07;;;;;;;15.08;38.25;93641.84;5062861;28;20082;-78
2023/03/31 10:17:19;;;;;;;7.78;1.65;;;;;;;15.22;37.85;93648.38;5062661;28;20478;-81
2023/03/31 10:20:05;;;;;;;8.30;1.90;;;;;;;15.24;37.77;93650.69;5062518;28;20059;-79
2023/03/31 10:22:31;;;;;;;5.68;1.60;;;;;;;15.30;37.48;93638.56;5062474;28;20028;-79
2023/03/31 10:25:14;;;;;;;4.95;1.40;;;;;;;15.24;36.84;93635.38;5062616;28;20319;-77
2023/03/31 10:27:43;;;;;;;7.55;2.13;;;;;;;15.13;37.52;93630.88;5062598;28;20044;-77
2023/03/31 10:30:16;;;;;;;7.32;1.85;;;;;;;15.14;37.46;93633.22;5062374;28;20227;-77
2023/03/31 10:32:42;;;;;;;5.60;1.63;;;;;;;15.22;37.65;93631.47;5062379;28;20033;-78
2023/03/31 10:35:21;;;;;;;8.68;1.90;;;;;;;15.20;37.58;93626.47;5062809;28;20306;-77
2023/03/31 10:37:49;;;;;;;10.20;1.83;;;;;;;15.21;37.25;93616.50;5062344;28;20095;-79
2023/03/31 10:40:22;;;;;;;16.35;2.15;;;;;;;15.17;37.54;93611.03;5064454;28;20029;-78
2023/03/31 10:43:01;;;;;;;10.43;2.17;;;;;;;15.16;37.87;93622.91;5065304;28;20329;-78
2023/03/31 10:45:36;;;;;;;6.15;1.63;;;;;;;15.15;37.88;93615.19;5066527;28;20020;-78
2023/03/31 10:48:02;;;;;;;7.65;1.60;;;;;;;15.19;37.87;93610.69;5066311;28;20299;-79
2023/03/31 10:50:36;;;;;;;8.70;1.58;;;;;;;15.15;36.96;93604.47;5066414;28;20029;-81
2023/03/31 10:53:11;;;;;;;5.28;1.55;;;;;;;15.06;37.46;93607.28;5065690;28;20032;-81
2023/03/31 10:56:03;;;;;;;5.68;1.50;;;;;;;15.12;37.35;93599.75;5066081;28;20319;-81
2023/03/31 10:58:44;;;;;;;5.40;1.58;;;;;;;15.19;37.31;93600.72;5065935;28;20047;-81
2023/03/31 11:01:31;;;;;;;6.22;1.45;;;;;;;15.13;36.87;93598.66;5066009;28;20338;-80
2023/03/31 11:04:32;;;;;;;7.43;1.77;;;;;;;15.01;37.30;93597.59;5065849;28;20028;-81
2023/03/31 11:07:16;;;;;;;7.53;1.50;;;;;;;14.89;37.33;93600.38;5044074;28;20025;-80
2023/03/31 11:10:26;;;;;;;9.90;1.65;;;;;;;15.03;37.63;93603.41;5064121;28;20040;-83
2023/03/31 11:13:32;;;;;;;7.10;1.33;;;;;;;15.07;37.28;93602.72;5098277;28;20052;-87
2023/03/31 11:16:08;;;;;;;7.47;2.47;;;;;;;14.82;38.22;93584.91;5063902;28;20032;-89
2023/03/31 11:19:02;;;;;;;6.78;1.75;;;;;;;14.87;38.45;93583.06;5065537;28;20025;-87
2023/03/31 11:21:40;;;;;;;6.95;2.33;;;;;;;15.01;37.29;93584.19;5065119;28;20037;-82
2023/03/31 11:24:40;;;;;;;6.75;1.73;;;;;;;14.83;37.59;93577.63;5065773;28;20032;-88
2023/03/31 11:27:12;;;;;;;5.22;1.85;;;;;;;14.81;38.19;93572.59;5046216;28;20033;-81
2023/03/31 11:29:56;;;;;;;7.43;1.48;;;;;;;14.95;38.21;93564.09;5066201;28;20047;-84
2023/03/31 11:32:54;;;;;;;6.63;1.50;;;;;;;15.10;37.21;93551.03;5065944;28;20029;-89
2023/03/31 11:35:31;;;;;;;6.00;1.60;;;;;;;15.25;37.38;93550.22;5054669;28;20033;-90
2023/03/31 11:37:57;;;;;;;8.15;1.70;;;;;;;15.25;37.54;93561.75;5066145;28;20070;-87
2023/03/31 11:41:01;;;;;;;7.07;1.70;;;;;;;15.36;37.68;93561.19;5065611;28;20056;-88
2023/03/31 11:43:36;;;;;;;4.68;1.63;;;;;;;15.32;37.03;93544.22;5065333;28;20083;-87
2023/03/31 11:46:12;;;;;;;7.65;1.67;;;;;;;15.40;36.97;93545.94;5065927;28;20025;-87
2023/03/31 11:48:58;;;;;;;6.15;1.50;;;;;;;15.44;37.23;93536.81;5065158;28;20017;-83
2023/03/31 11:51:40;;;;;;;9.02;1.95;;;;;;;15.47;37.71;93539.94;5064624;28;20027;-82
2023/03/31 11:54:15;;;;;;;6.25;1.63;;;;;;;15.32;38.14;93545.00;5064940;28;20091;-82